Time;durP1;ratioP1;P1;durP2;ratioP2;P2;SDS_P1;SDS_P2;PMS_P1;PMS_P2;Temp;Humidity;BMP_temperature;BMP_pressure;BME280_temperature;BME280_humidity;BME280_pressure;Samples;Min_cycle;Max_cycle;Signal;HPM_P1;HPM_P2
2023/12/15 00:01:31;;;;;;;9.55;6.25;;;8.50;96.70;;;;;;6305690;22;20023;-69
2023/12/15 00:04:00;;;;;;;8.35;5.53;;;8.20;96.70;;;;;;6307127;22;20015;-69
2023/12/15 00:06:29;;;;;;;7.78;5.95;;;8.00;96.70;;;;;;6308531;22;20023;-70
2023/12/15 00:08:57;;;;;;;9.68;6.38;;;8.10;96.70;;;;;;6281866;22;20076;-69
2023/12/15 00:11:26;;;;;;;10.90;6.50;;;8.20;96.70;;;;;;6281944;22;20450;-70
2023/12/15 00:13:57;;;;;;;11.30;7.25;;;8.20;96.70;;;;;;6308160;22;20096;-70
2023/12/15 00:16:27;;;;;;;10.65;7.57;;;8.10;96.70;;;;;;6306803;22;20042;-70
2023/12/15 00:18:57;;;;;;;11.18;7.80;;;8.20;96.70;;;;;;6308926;22;20473;-70
2023/12/15 00:21:26;;;;;;;11.43;7.70;;;8.20;96.70;;;;;;6257684;22;20629;-70
2023/12/15 00:23:55;;;;;;;12.50;8.68;;;8.10;96.70;;;;;;6281997;22;20100;-70
2023/12/15 00:26:23;;;;;;;14.43;9.25;;;8.20;96.70;;;;;;6308163;22;20091;-70
2023/12/15 00:28:52;;;;;;;17.80;9.40;;;8.20;96.70;;;;;;6306093;22;20019;-71
2023/12/15 00:31:23;;;;;;;16.42;9.77;;;8.30;96.70;;;;;;6306910;22;20031;-70
2023/12/15 00:33:51;;;;;;;13.60;9.77;;;8.30;96.70;;;;;;6308633;22;20022;-70
2023/12/15 00:36:21;;;;;;;13.57;10.10;;;8.40;96.70;;;;;;6307264;22;20019;-70
2023/12/15 00:38:49;;;;;;;13.07;9.35;;;8.40;96.70;;;;;;6281621;22;20046;-70
2023/12/15 00:41:18;;;;;;;12.82;8.25;;;8.40;96.70;;;;;;6307120;22;20035;-70
2023/12/15 00:43:48;;;;;;;12.23;8.23;;;8.40;96.70;;;;;;6306889;22;20012;-69
2023/12/15 00:46:17;;;;;;;13.70;8.00;;;8.30;96.70;;;;;;6307988;22;20021;-71
2023/12/15 00:48:49;;;;;;;10.00;7.65;;;8.30;96.70;;;;;;6280937;22;20025;-71
2023/12/15 00:51:17;;;;;;;12.27;7.38;;;8.30;96.70;;;;;;6308510;22;20030;-70
2023/12/15 00:53:46;;;;;;;12.02;6.97;;;8.20;96.70;;;;;;6280677;22;20023;-71
2023/12/15 00:56:14;;;;;;;10.35;7.50;;;8.10;96.70;;;;;;6306779;22;20012;-72
2023/12/15 00:58:43;;;;;;;10.75;7.38;;;8.10;96.70;;;;;;6307618;22;20057;-71
2023/12/15 01:01:11;;;;;;;9.82;6.72;;;8.20;96.70;;;;;;6279967;22;20023;-71
2023/12/15 01:03:41;;;;;;;11.48;6.88;;;8.20;96.70;;;;;;6306737;22;20023;-71
2023/12/15 01:06:13;;;;;;;12.07;6.25;;;8.20;96.70;;;;;;6306300;22;20083;-71
2023/12/15 01:08:42;;;;;;;12.57;7.13;;;8.10;96.70;;;;;;6305917;22;20027;-71
2023/12/15 01:11:11;;;;;;;9.98;6.32;;;8.10;96.70;;;;;;6306735;22;20114;-71
2023/12/15 01:13:41;;;;;;;11.75;6.75;;;8.10;96.70;;;;;;6281558;22;20030;-71
2023/12/15 01:16:10;;;;;;;12.90;6.68;;;8.00;96.70;;;;;;6273387;22;20562;-71
2023/12/15 01:18:38;;;;;;;9.70;6.70;;;8.00;96.70;;;;;;6248601;22;20417;-71
2023/12/15 01:21:08;;;;;;;10.38;7.13;;;7.90;96.70;;;;;;6273486;22;20047;-72
2023/12/15 01:23:38;;;;;;;10.20;6.60;;;7.90;96.70;;;;;;6247868;22;20027;-71
2023/12/15 01:26:07;;;;;;;9.68;6.55;;;8.00;96.70;;;;;;6223944;22;20062;-71
2023/12/15 01:28:35;;;;;;;8.68;5.72;;;8.10;96.70;;;;;;6274776;22;20027;-71
2023/12/15 01:31:05;;;;;;;10.52;5.90;;;7.90;96.70;;;;;;6248694;22;20019;-70
2023/12/15 01:33:34;;;;;;;10.38;5.10;;;8.00;96.70;;;;;;6223487;22;20020;-71
2023/12/15 01:36:03;;;;;;;8.73;5.40;;;7.90;96.70;;;;;;6249327;22;20020;-70
2023/12/15 01:38:32;;;;;;;6.95;5.25;;;7.90;96.70;;;;;;6248404;22;20020;-70
2023/12/15 01:41:02;;;;;;;7.90;5.38;;;7.90;96.70;;;;;;6273990;22;20045;-71
2023/12/15 01:43:31;;;;;;;8.23;5.07;;;7.80;96.70;;;;;;6248846;22;20024;-70
2023/12/15 01:46:01;;;;;;;7.30;4.72;;;7.80;96.70;;;;;;6247525;22;20031;-71
2023/12/15 01:48:41;;;;;;;8.95;5.35;;;7.80;96.70;;;;;;6309202;22;20023;-70
2023/12/15 01:51:12;;;;;;;7.88;4.88;;;7.70;96.70;;;;;;6308930;22;20030;-71
2023/12/15 01:53:43;;;;;;;7.22;4.60;;;7.70;96.70;;;;;;6308056;22;20107;-71
2023/12/15 01:56:14;;;;;;;7.50;4.43;;;7.70;96.70;;;;;;6305482;22;20023;-70
2023/12/15 01:58:42;;;;;;;8.05;4.75;;;7.70;96.70;;;;;;6307625;22;20023;-70
2023/12/15 02:01:11;;;;;;;8.38;5.65;;;7.70;96.70;;;;;;6307105;22;20461;-70
2023/12/15 02:03:40;;;;;;;7.18;4.63;;;7.60;96.70;;;;;;6281034;22;20025;-71
2023/12/15 02:06:10;;;;;;;8.10;4.43;;;7.60;96.70;;;;;;6306068;22;20058;-70
2023/12/15 02:08:43;;;;;;;6.70;4.35;;;7.50;96.70;;;;;;6305427;22;20046;-70
2023/12/15 02:11:15;;;;;;;8.32;4.88;;;7.50;96.70;;;;;;6280387;22;20046;-70
2023/12/15 02:13:44;;;;;;;7.05;4.28;;;7.50;96.70;;;;;;6308586;22;20034;-70
2023/12/15 02:16:13;;;;;;;6.15;4.32;;;7.50;96.70;;;;;;6306019;22;20019;-70
2023/12/15 02:18:42;;;;;;;7.97;4.35;;;7.50;96.70;;;;;;6280053;22;20046;-71
2023/12/15 02:21:10;;;;;;;7.10;4.57;;;7.50;96.70;;;;;;6306549;22;20130;-70
2023/12/15 02:23:41;;;;;;;9.40;4.97;;;7.50;96.70;;;;;;6306031;22;20465;-70
2023/12/15 02:26:12;;;;;;;6.50;4.10;;;7.40;96.70;;;;;;6308116;22;20030;-71
2023/12/15 02:28:40;;;;;;;7.35;4.97;;;7.30;96.70;;;;;;6308415;22;20023;-70
2023/12/15 02:31:10;;;;;;;8.07;4.57;;;7.40;96.70;;;;;;6279841;22;20023;-70
2023/12/15 02:33:39;;;;;;;8.88;4.88;;;7.40;96.70;;;;;;6309220;22;20501;-70
2023/12/15 02:36:08;;;;;;;8.50;4.15;;;7.40;96.70;;;;;;6306122;22;20098;-71
2023/12/15 02:38:38;;;;;;;7.90;4.63;;;7.40;96.70;;;;;;6307621;22;20015;-70
2023/12/15 02:41:13;;;;;;;7.70;4.35;;;7.50;96.70;;;;;;6306653;22;20019;-70
2023/12/15 02:43:41;;;;;;;9.35;4.72;;;7.60;96.70;;;;;;6255243;22;20047;-71
2023/12/15 02:46:10;;;;;;;7.78;4.57;;;7.60;96.70;;;;;;6307445;22;20022;-71
2023/12/15 02:48:38;;;;;;;7.25;4.47;;;7.50;96.70;;;;;;6307674;22;20282;-70
2023/12/15 02:51:07;;;;;;;7.57;4.10;;;7.40;96.70;;;;;;6308667;22;20086;-70
2023/12/15 02:53:37;;;;;;;8.38;4.40;;;7.30;96.70;;;;;;6229756;22;20027;-70
2023/12/15 02:56:07;;;;;;;7.38;4.70;;;7.10;96.70;;;;;;6306019;22;20075;-70
2023/12/15 02:58:38;;;;;;;7.95;4.47;;;7.10;96.70;;;;;;6304649;22;20054;-70
2023/12/15 03:01:06;;;;;;;7.97;4.45;;;7.10;96.70;;;;;;6254761;22;20110;-70
2023/12/15 03:03:36;;;;;;;7.70;4.82;;;7.20;96.70;;;;;;6306360;22;20019;-70
2023/12/15 03:06:05;;;;;;;8.18;4.38;;;7.20;96.70;;;;;;6280370;22;20086;-70
2023/12/15 03:08:33;;;;;;;6.70;4.18;;;7.20;96.70;;;;;;6307586;22;20571;-70
2023/12/15 03:11:03;;;;;;;8.82;3.88;;;7.20;96.70;;;;;;6304864;22;20041;-70
2023/12/15 03:13:32;;;;;;;6.97;4.03;;;7.20;96.70;;;;;;6297022;22;20027;-70
2023/12/15 03:16:08;;;;;;;5.78;4.35;;;7.30;96.70;;;;;;6303762;22;20016;-71
2023/12/15 03:22:22;;;;;;;12.48;4.47;;;7.30;96.70;;;;;;6272404;22;20053;-68
2023/12/15 03:29:55;;;;;;;7.28;4.22;;;7.20;96.70;;;;;;6097000;23;20044;-69
2023/12/15 03:47:09;;;;;;;6.80;4.10;;;7.20;96.70;;;;;;6006809;23;20099;-68
2023/12/15 04:14:59;;;;;;;9.30;6.30;;;7.10;96.70;;;;;;6017431;23;20019;-69
2023/12/15 04:43:29;;;;;;;7.78;4.18;;;7.00;96.70;;;;;;6153476;23;20542;-68
2023/12/15 04:51:32;;;;;;;5.82;3.85;;;6.80;96.70;;;;;;6152927;23;20737;-68
2023/12/15 04:55:20;;;;;;;5.07;3.60;;;6.70;96.70;;;;;;6106541;23;20100;-69
2023/12/15 04:59:03;;;;;;;4.07;3.33;;;6.70;96.70;;;;;;6006270;23;20420;-68
2023/12/15 05:07:09;;;;;;;;;;;;;;;;;;;;;
2023/12/15 05:11:07;;;;;;;6.68;3.40;;;6.80;96.70;;;;;;6008905;23;20686;-69
2023/12/15 05:14:20;;;;;;;8.68;3.92;;;6.90;96.70;;;;;;6000548;23;20020;-68
2023/12/15 05:21:18;;;;;;;7.25;5.13;;;6.60;96.70;;;;;;6098469;23;20032;-68
2023/12/15 05:23:59;;;;;;;;;;;;;;;;;;;;;
2023/12/15 05:30:28;;;;;;;7.40;4.45;;;6.60;96.70;;;;;;6181219;23;20396;-69
2023/12/15 05:33:09;;;;;;;7.10;4.93;;;6.60;96.70;;;;;;6156887;23;20167;-68
2023/12/15 05:40:40;;;;;;;7.80;4.28;;;6.60;96.70;;;;;;6153330;23;20020;-68
2023/12/15 05:50:53;;;;;;;5.97;4.18;;;6.50;96.70;;;;;;6153514;23;20025;-69
2023/12/15 05:59:08;;;;;;;7.00;4.28;;;6.40;96.70;;;;;;6059861;23;20094;-68
2023/12/15 06:02:22;;;;;;;5.68;4.07;;;6.50;96.70;;;;;;6036549;23;20030;-68
2023/12/15 06:17:36;;;;;;;8.07;4.55;;;6.30;96.70;;;;;;6149871;23;20101;-68
2023/12/15 06:20:13;;;;;;;8.43;4.32;;;6.30;96.70;;;;;;6105509;23;20021;-68
2023/12/15 06:23:27;;;;;;;9.40;4.38;;;6.30;96.70;;;;;;6136835;23;20170;-68
2023/12/15 06:26:23;;;;;;;9.90;4.28;;;6.20;96.70;;;;;;6131404;23;20276;-69
2023/12/15 06:29:29;;;;;;;8.05;4.53;;;6.20;96.70;;;;;;6034032;23;20037;-69
2023/12/15 06:32:01;;;;;;;10.15;5.20;;;6.20;96.70;;;;;;6064269;23;20097;-69
2023/12/15 06:43:42;;;;;;;7.80;4.40;;;6.30;96.70;;;;;;6093110;23;20472;-69
2023/12/15 06:56:38;;;;;;;;;;;;;;;;;;;;;
2023/12/15 07:09:43;;;;;;;9.45;4.47;;;6.40;96.70;;;;;;6122212;23;20024;-66
2023/12/15 07:12:34;;;;;;;;;;;;;;;;;;;;;
2023/12/15 07:15:29;;;;;;;8.00;3.92;;;6.30;96.70;;;;;;6122857;23;20044;-65
2023/12/15 07:18:01;;;;;;;8.25;4.57;;;6.30;96.70;;;;;;6149198;22;20021;-65
2023/12/15 07:20:34;;;;;;;11.10;5.10;;;6.40;96.70;;;;;;6249753;22;20031;-67
2023/12/15 07:23:03;;;;;;;10.05;5.80;;;6.40;96.70;;;;;;6274466;22;20023;-66
2023/12/15 07:33:25;;;;;;;10.45;5.10;;;6.30;96.70;;;;;;6260712;22;20034;-67
2023/12/15 07:36:54;;;;;;;9.63;5.35;;;6.30;96.70;;;;;;6273299;22;20098;-67
2023/12/15 07:39:23;;;;;;;9.45;5.28;;;6.40;96.70;;;;;;6274541;22;20020;-68
2023/12/15 07:41:54;;;;;;;11.02;5.70;;;6.40;96.70;;;;;;6249417;22;20071;-67
2023/12/15 07:44:23;;;;;;;12.65;6.65;;;6.50;96.70;;;;;;6274169;22;20046;-68
2023/12/15 07:47:38;;;;;;;11.83;6.37;;;6.60;96.70;;;;;;6272646;22;20074;-67
2023/12/15 07:50:15;;;;;;;13.75;6.15;;;6.70;96.70;;;;;;6274592;22;20019;-67
2023/12/15 07:52:45;;;;;;;11.68;5.45;;;6.90;96.70;;;;;;6274343;22;20019;-68
2023/12/15 07:55:14;;;;;;;14.18;5.80;;;6.90;96.70;;;;;;6275130;22;20469;-67
2023/12/15 07:57:43;;;;;;;14.15;6.15;;;7.00;96.70;;;;;;6276032;22;20022;-67
2023/12/15 08:00:16;;;;;;;20.27;7.68;;;7.10;96.70;;;;;;6276551;22;20024;-67
2023/12/15 08:03:05;;;;;;;18.45;7.47;;;7.20;96.70;;;;;;6277323;22;20054;-67
2023/12/15 08:05:36;;;;;;;12.65;6.63;;;7.30;96.70;;;;;;6277810;22;20030;-68
2023/12/15 08:08:05;;;;;;;15.10;6.90;;;7.30;96.70;;;;;;6277531;22;20122;-68
2023/12/15 08:10:34;;;;;;;19.45;7.78;;;7.40;96.70;;;;;;6276060;22;20020;-68
2023/12/15 08:13:03;;;;;;;14.60;6.60;;;7.40;96.70;;;;;;6278098;22;20045;-67
2023/12/15 08:15:33;;;;;;;17.08;7.28;;;7.50;96.70;;;;;;6276344;22;20073;-67
2023/12/15 08:18:02;;;;;;;12.45;6.57;;;7.60;96.70;;;;;;6275140;22;20351;-68
2023/12/15 08:20:33;;;;;;;11.63;6.22;;;7.70;96.70;;;;;;6274343;22;20357;-67
2023/12/15 08:23:04;;;;;;;9.95;5.47;;;7.80;96.70;;;;;;6250869;22;20020;-67
2023/12/15 08:25:33;;;;;;;13.80;6.47;;;7.80;96.70;;;;;;6276403;22;20016;-67
2023/12/15 08:28:02;;;;;;;13.00;5.70;;;7.80;96.70;;;;;;6250589;22;20015;-68
2023/12/15 08:30:31;;;;;;;13.95;6.40;;;7.80;96.70;;;;;;6250533;22;20072;-68
2023/12/15 08:33:01;;;;;;;13.23;6.20;;;7.90;96.70;;;;;;6249255;22;20019;-68
2023/12/15 08:35:31;;;;;;;11.35;5.78;;;8.10;96.70;;;;;;6225998;22;20039;-68
2023/12/15 08:37:59;;;;;;;11.20;6.60;;;8.20;96.70;;;;;;6276557;22;20008;-67
2023/12/15 08:40:30;;;;;;;13.10;6.28;;;8.20;96.70;;;;;;6274492;22;20020;-67
2023/12/15 08:43:00;;;;;;;11.98;6.25;;;8.20;96.70;;;;;;6249961;22;20066;-67
2023/12/15 08:45:28;;;;;;;11.20;6.97;;;8.30;96.70;;;;;;6274678;22;20019;-67
2023/12/15 08:47:57;;;;;;;12.82;6.60;;;8.40;96.70;;;;;;6276788;22;20054;-66
2023/12/15 08:50:26;;;;;;;17.27;9.23;;;8.50;96.70;;;;;;6276684;22;20023;-67
2023/12/15 08:52:55;;;;;;;17.52;9.02;;;8.60;96.70;;;;;;6249479;22;20027;-67
2023/12/15 08:55:24;;;;;;;18.55;9.50;;;8.70;96.70;;;;;;6276353;22;20449;-67
2023/12/15 08:57:55;;;;;;;18.10;8.80;;;8.80;96.70;;;;;;6274432;22;20024;-67
2023/12/15 09:00:24;;;;;;;18.20;8.13;;;8.90;96.70;;;;;;6250733;22;20019;-67
2023/12/15 09:02:53;;;;;;;16.13;8.63;;;9.00;96.70;;;;;;6274379;22;20047;-67
2023/12/15 09:05:23;;;;;;;17.17;8.02;;;9.20;96.70;;;;;;6249533;22;20024;-68
2023/12/15 09:07:57;;;;;;;16.08;7.53;;;9.30;96.70;;;;;;6275209;22;20023;-67
2023/12/15 09:10:33;;;;;;;18.00;8.82;;;9.30;96.70;;;;;;6275553;22;20023;-67
2023/12/15 09:13:04;;;;;;;21.48;8.77;;;9.40;96.70;;;;;;6250900;22;20030;-66
2023/12/15 09:15:33;;;;;;;16.48;8.25;;;9.50;96.70;;;;;;6251208;22;20331;-67
2023/12/15 09:18:02;;;;;;;19.42;9.80;;;9.60;96.70;;;;;;6275444;22;20026;-67
2023/12/15 09:20:32;;;;;;;14.30;8.30;;;9.70;96.70;;;;;;6275779;22;20362;-68
2023/12/15 09:23:07;;;;;;;17.20;8.18;;;9.70;96.70;;;;;;6250445;22;20027;-66
2023/12/15 09:25:38;;;;;;;17.98;8.75;;;9.90;96.70;;;;;;6250277;22;20122;-67
2023/12/15 09:28:09;;;;;;;18.25;8.57;;;10.00;96.70;;;;;;6275740;22;20012;-67
2023/12/15 09:30:39;;;;;;;15.65;8.07;;;10.10;96.70;;;;;;6275194;22;20565;-66
2023/12/15 09:33:08;;;;;;;13.95;7.95;;;10.20;96.70;;;;;;6275121;22;20353;-67
2023/12/15 09:35:37;;;;;;;14.48;7.00;;;10.40;96.70;;;;;;6225381;22;20085;-66
2023/12/15 09:38:07;;;;;;;13.55;6.63;;;10.50;96.70;;;;;;6276704;22;20012;-66
2023/12/15 09:40:37;;;;;;;12.13;7.18;;;10.60;96.70;;;;;;6275945;22;20039;-67
2023/12/15 09:43:08;;;;;;;17.15;6.85;;;10.70;96.70;;;;;;6277076;22;20046;-67
2023/12/15 09:45:38;;;;;;;12.02;6.32;;;10.90;96.70;;;;;;6274640;22;20046;-67
2023/12/15 09:48:08;;;;;;;12.38;6.53;;;11.00;96.70;;;;;;6276664;22;20016;-68
2023/12/15 09:50:40;;;;;;;10.00;6.50;;;11.10;96.70;;;;;;6276677;22;20016;-67
2023/12/15 09:53:10;;;;;;;8.05;5.97;;;11.20;96.70;;;;;;6250406;22;20099;-67
2023/12/15 09:55:39;;;;;;;10.20;5.60;;;11.30;96.70;;;;;;6274308;22;20024;-67
2023/12/15 09:58:12;;;;;;;10.73;6.03;;;11.40;96.70;;;;;;6276597;22;20016;-67
2023/12/15 10:00:42;;;;;;;8.65;6.00;;;11.40;96.70;;;;;;6213534;23;20024;-67
2023/12/15 10:03:11;;;;;;;9.38;5.22;;;11.50;96.70;;;;;;6188562;23;20365;-66
2023/12/15 10:05:41;;;;;;;8.68;4.85;;;11.60;96.70;;;;;;6162429;23;20079;-66
2023/12/15 10:08:11;;;;;;;8.77;3.75;;;11.70;96.70;;;;;;6163106;23;20036;-67
2023/12/15 10:10:40;;;;;;;8.32;4.93;;;11.80;96.70;;;;;;6188380;23;20048;-67
2023/12/15 10:13:11;;;;;;;10.02;4.30;;;11.90;96.70;;;;;;6212192;23;20545;-67
2023/12/15 10:15:40;;;;;;;6.07;3.65;;;12.00;96.70;;;;;;6211109;23;20720;-67
2023/12/15 10:18:12;;;;;;;4.90;3.33;;;12.00;96.70;;;;;;6161430;23;20391;-67
2023/12/15 10:20:43;;;;;;;8.48;3.20;;;12.20;96.70;;;;;;6211788;23;20588;-66
2023/12/15 10:23:14;;;;;;;6.80;3.15;;;12.30;96.70;;;;;;6212039;23;20020;-67
2023/12/15 10:25:48;;;;;;;6.70;3.58;;;12.40;96.70;;;;;;6212016;23;20071;-66
2023/12/15 10:28:20;;;;;;;8.25;3.55;;;12.50;96.70;;;;;;6212867;23;20075;-67
2023/12/15 10:30:50;;;;;;;6.95;3.38;;;12.50;96.70;;;;;;6192440;22;20028;-67
2023/12/15 10:33:21;;;;;;;8.65;3.70;;;12.60;96.70;;;;;;6275509;22;20019;-67
2023/12/15 10:35:51;;;;;;;9.05;4.40;;;12.60;96.70;;;;;;6277269;22;20016;-67
2023/12/15 10:38:20;;;;;;;9.52;4.40;;;12.70;96.70;;;;;;6249373;22;20343;-67
2023/12/15 10:40:50;;;;;;;7.55;4.10;;;12.60;96.70;;;;;;6224713;22;20405;-67
2023/12/15 10:43:21;;;;;;;7.72;3.20;;;12.70;96.70;;;;;;6249717;22;20020;-67
2023/12/15 10:45:53;;;;;;;6.60;3.22;;;12.70;96.70;;;;;;6276337;22;20054;-67
2023/12/15 10:48:24;;;;;;;5.25;3.78;;;12.80;96.70;;;;;;6275130;22;20065;-67
2023/12/15 10:50:55;;;;;;;6.90;2.88;;;12.90;96.70;;;;;;6173605;22;20081;-67
2023/12/15 10:53:25;;;;;;;5.00;2.95;;;13.00;96.70;;;;;;6273165;22;20039;-67
2023/12/15 10:55:54;;;;;;;4.45;3.15;;;13.10;96.70;;;;;;6274279;22;20030;-67
2023/12/15 10:58:25;;;;;;;7.10;3.50;;;13.20;96.70;;;;;;6275647;22;20073;-67
2023/12/15 11:00:55;;;;;;;6.35;3.70;;;13.20;96.70;;;;;;6275124;22;20015;-67
2023/12/15 11:03:23;;;;;;;6.28;4.30;;;13.30;96.70;;;;;;6274350;22;20030;-66
2023/12/15 11:05:52;;;;;;;9.02;5.85;;;13.30;96.70;;;;;;6273342;22;20034;-67
2023/12/15 11:08:21;;;;;;;9.82;6.68;;;13.40;96.70;;;;;;6248467;22;20031;-67
2023/12/15 11:10:51;;;;;;;11.18;6.80;;;13.40;96.70;;;;;;6247674;22;20027;-67
2023/12/15 11:13:59;;;;;;;9.73;6.25;;;13.50;96.70;;;;;;6275888;22;20027;-67
2023/12/15 11:16:29;;;;;;;12.55;6.32;;;13.60;96.70;;;;;;6227944;22;20023;-67
2023/12/15 11:19:02;;;;;;;10.77;5.25;;;13.70;96.70;;;;;;6274156;22;20050;-67
2023/12/15 11:21:30;;;;;;;7.10;4.50;;;13.80;96.70;;;;;;6272509;22;20527;-68
2023/12/15 11:24:03;;;;;;;6.88;4.15;;;13.80;96.70;;;;;;6244047;23;20028;-67
2023/12/15 11:26:33;;;;;;;5.53;3.60;;;13.90;96.70;;;;;;6217412;23;20076;-67
2023/12/15 11:29:06;;;;;;;6.35;3.83;;;14.10;96.70;;;;;;6243564;23;20022;-67
2023/12/15 11:31:36;;;;;;;6.75;3.63;;;14.20;96.70;;;;;;6245622;23;20054;-67
2023/12/15 11:34:06;;;;;;;6.70;3.72;;;14.30;96.70;;;;;;6219264;23;20038;-67
2023/12/15 11:36:44;;;;;;;7.25;3.70;;;14.30;96.70;;;;;;6219692;23;20023;-68
2023/12/15 11:39:15;;;;;;;6.10;3.45;;;14.40;96.70;;;;;;6195501;23;20020;-67
2023/12/15 11:41:48;;;;;;;5.65;2.90;;;14.50;96.70;;;;;;6220346;23;20016;-67
2023/12/15 11:44:23;;;;;;;4.10;2.70;;;14.60;96.70;;;;;;6220260;23;20023;-68
2023/12/15 11:46:53;;;;;;;4.80;2.87;;;14.70;96.70;;;;;;6218668;23;20323;-67
2023/12/15 11:49:23;;;;;;;5.45;3.00;;;14.80;96.70;;;;;;6246178;23;20235;-67
2023/12/15 11:51:53;;;;;;;5.22;2.47;;;14.90;96.70;;;;;;6246150;23;20070;-67
2023/12/15 11:54:23;;;;;;;4.60;2.85;;;15.10;96.70;;;;;;6219839;23;20032;-67
2023/12/15 11:56:52;;;;;;;7.60;2.67;;;15.20;96.70;;;;;;6245306;23;20021;-67
2023/12/15 11:59:23;;;;;;;3.67;2.45;;;15.30;96.70;;;;;;6219217;23;20099;-67
2023/12/15 12:01:52;;;;;;;3.60;2.33;;;15.30;96.70;;;;;;6244910;23;20023;-67
2023/12/15 12:04:20;;;;;;;5.95;2.97;;;15.40;96.70;;;;;;6220253;23;20351;-67
2023/12/15 12:06:49;;;;;;;2.95;2.30;;;15.50;96.70;;;;;;6195418;23;20039;-67
2023/12/15 12:09:19;;;;;;;7.72;4.90;;;15.60;96.70;;;;;;6194910;23;20016;-67
2023/12/15 12:11:49;;;;;;;6.93;3.50;;;15.80;96.70;;;;;;6246075;23;20028;-66
2023/12/15 12:14:18;;;;;;;4.53;3.25;;;15.90;96.70;;;;;;6218660;23;20027;-66
2023/12/15 12:16:52;;;;;;;6.47;2.95;;;16.00;96.70;;;;;;6195238;23;20024;-66
2023/12/15 12:19:22;;;;;;;4.25;2.80;;;16.10;96.70;;;;;;6246533;23;20016;-66
2023/12/15 12:21:53;;;;;;;3.90;2.40;;;16.10;96.70;;;;;;6250224;22;20035;-67
2023/12/15 12:24:25;;;;;;;3.55;2.45;;;16.10;96.70;;;;;;6307345;22;20093;-66
2023/12/15 12:26:54;;;;;;;4.05;2.53;;;16.20;96.70;;;;;;6307739;22;20065;-66
2023/12/15 12:29:24;;;;;;;5.30;2.60;;;16.30;96.70;;;;;;6308306;22;20086;-67
2023/12/15 12:31:55;;;;;;;5.28;2.95;;;16.20;96.70;;;;;;6279928;22;20038;-67
2023/12/15 12:34:24;;;;;;;5.40;2.83;;;16.30;96.70;;;;;;6280528;22;20019;-66
2023/12/15 12:36:52;;;;;;;4.43;3.13;;;16.40;96.70;;;;;;6307529;22;20501;-66
2023/12/15 12:39:23;;;;;;;3.42;2.42;;;16.50;96.70;;;;;;6306770;22;20069;-66
2023/12/15 12:41:51;;;;;;;3.85;1.92;;;16.60;96.70;;;;;;6278857;22;20023;-66
2023/12/15 12:44:26;;;;;;;3.20;2.22;;;16.60;96.70;;;;;;6307545;22;20042;-67
2023/12/15 12:46:57;;;;;;;2.55;1.80;;;16.70;96.70;;;;;;6229723;22;20069;-66
2023/12/15 12:49:25;;;;;;;2.05;1.30;;;16.80;96.70;;;;;;6281490;22;20326;-66
2023/12/15 12:51:58;;;;;;;1.27;0.60;;;16.70;96.70;;;;;;6308400;22;20089;-65
2023/12/15 12:54:26;;;;;;;0.93;0.60;;;16.80;96.70;;;;;;6280470;22;20023;-66
2023/12/15 12:56:55;;;;;;;1.20;0.70;;;16.80;96.70;;;;;;6279988;22;20049;-66
2023/12/15 12:59:27;;;;;;;0.95;0.50;;;16.90;96.70;;;;;;6307867;22;20043;-66
2023/12/15 13:01:59;;;;;;;0.52;0.30;;;16.80;96.70;;;;;;6279945;22;20027;-67
2023/12/15 13:04:45;;;;;;;0.85;0.50;;;16.80;96.70;;;;;;6259256;22;20023;-67
2023/12/15 13:07:13;;;;;;;1.55;0.45;;;16.80;96.70;;;;;;6281091;22;20050;-68
2023/12/15 13:09:42;;;;;;;2.40;0.52;;;16.80;96.70;;;;;;6280279;22;20023;-68
2023/12/15 13:12:17;;;;;;;2.63;0.80;;;16.80;96.70;;;;;;6281094;22;20053;-67
2023/12/15 13:14:46;;;;;;;1.13;0.20;;;16.80;96.70;;;;;;6255568;22;20573;-67
2023/12/15 13:17:17;;;;;;;0.35;0.25;;;16.80;96.70;;;;;;6307655;22;20075;-67
2023/12/15 13:19:46;;;;;;;0.50;0.20;;;16.70;96.70;;;;;;6281010;22;20012;-67
2023/12/15 13:22:15;;;;;;;1.98;0.55;;;16.60;96.70;;;;;;6274841;22;20019;-67
2023/12/15 13:24:44;;;;;;;2.47;0.43;;;16.40;96.70;;;;;;6276383;22;20023;-67
2023/12/15 13:27:25;;;;;;;0.50;0.20;;;16.20;96.70;;;;;;6266909;22;20103;-67
2023/12/15 13:29:53;;;;;;;0.55;0.40;;;16.10;96.70;;;;;;6274815;22;20458;-67
2023/12/15 13:32:24;;;;;;;1.23;0.40;;;16.00;96.70;;;;;;6276457;22;20019;-67
2023/12/15 13:34:53;;;;;;;1.35;0.55;;;15.90;96.70;;;;;;6273177;22;20099;-67
2023/12/15 13:37:21;;;;;;;1.15;0.75;;;15.80;96.70;;;;;;6240491;22;20039;-68
2023/12/15 13:39:51;;;;;;;4.10;0.98;;;15.80;96.70;;;;;;6274624;22;20043;-67
2023/12/15 13:42:20;;;;;;;3.10;0.80;;;15.70;96.70;;;;;;6266737;22;20515;-67
2023/12/15 13:44:49;;;;;;;2.90;0.60;;;15.70;96.70;;;;;;6275209;22;20091;-67
2023/12/15 13:47:18;;;;;;;0.68;0.38;;;15.70;96.70;;;;;;6265391;22;20416;-67
2023/12/15 13:49:49;;;;;;;0.50;0.38;;;15.50;96.70;;;;;;6275006;22;20043;-68
2023/12/15 13:52:18;;;;;;;1.33;0.30;;;15.50;96.70;;;;;;6264878;22;20028;-67
2023/12/15 13:54:48;;;;;;;1.67;0.35;;;15.40;96.70;;;;;;6276784;22;20111;-67
2023/12/15 13:57:16;;;;;;;1.48;0.40;;;15.40;96.70;;;;;;6265697;22;20387;-67
2023/12/15 13:59:45;;;;;;;2.08;0.50;;;15.30;96.70;;;;;;6277311;22;20069;-67
2023/12/15 14:02:15;;;;;;;0.80;0.47;;;15.30;96.70;;;;;;6264516;22;20030;-67
2023/12/15 14:04:43;;;;;;;1.50;0.52;;;15.30;96.70;;;;;;6275806;22;20387;-67
2023/12/15 14:07:14;;;;;;;0.75;0.50;;;15.30;96.70;;;;;;6264179;22;20071;-67
2023/12/15 14:09:43;;;;;;;0.80;0.40;;;15.20;96.70;;;;;;6276971;22;20015;-68
2023/12/15 14:12:11;;;;;;;1.50;0.57;;;15.20;96.70;;;;;;6264482;22;20023;-68
2023/12/15 14:14:40;;;;;;;0.50;0.40;;;15.10;96.70;;;;;;6277464;22;20035;-67
2023/12/15 14:17:10;;;;;;;1.17;0.60;;;15.10;96.70;;;;;;6276347;22;20362;-67
2023/12/15 14:19:39;;;;;;;0.90;0.50;;;15.10;96.70;;;;;;6270515;22;20020;-67
2023/12/15 14:22:11;;;;;;;0.50;0.32;;;15.10;96.70;;;;;;6282869;22;20022;-67
2023/12/15 14:24:43;;;;;;;3.13;0.40;;;15.00;96.70;;;;;;6279970;22;20072;-67
2023/12/15 14:27:12;;;;;;;0.68;0.30;;;15.00;96.70;;;;;;6254601;22;20099;-67
2023/12/15 14:32:45;;;;;;;1.08;0.40;;;14.80;96.70;;;;;;6306677;22;20015;-68
2023/12/15 14:35:14;;;;;;;1.75;0.68;;;14.80;96.70;;;;;;6280094;22;20019;-68
2023/12/15 14:37:43;;;;;;;1.23;0.70;;;14.80;96.70;;;;;;6307046;22;20045;-67
2023/12/15 14:40:13;;;;;;;0.93;0.40;;;14.80;96.70;;;;;;6254710;22;20078;-67
2023/12/15 14:42:42;;;;;;;1.08;0.70;;;14.80;96.70;;;;;;6307042;22;20027;-67
2023/12/15 14:45:11;;;;;;;1.52;0.80;;;14.70;96.70;;;;;;6300547;22;20023;-67
2023/12/15 14:47:40;;;;;;;1.50;0.60;;;14.70;96.70;;;;;;6279738;22;20044;-67
2023/12/15 14:50:09;;;;;;;2.28;0.98;;;14.60;96.70;;;;;;6279957;22;20015;-67
2023/12/15 14:52:39;;;;;;;3.17;1.05;;;14.60;96.70;;;;;;6307114;22;20360;-67
2023/12/15 14:55:08;;;;;;;1.42;0.63;;;14.50;96.70;;;;;;6229351;22;20027;-67
2023/12/15 14:57:40;;;;;;;1.00;0.70;;;14.50;96.70;;;;;;6279982;22;20027;-68
2023/12/15 15:00:11;;;;;;;1.48;0.88;;;14.40;96.70;;;;;;6254632;22;20079;-68
2023/12/15 15:02:41;;;;;;;1.13;0.70;;;14.40;96.70;;;;;;6306945;22;20069;-67
2023/12/15 15:05:10;;;;;;;1.70;0.50;;;14.30;96.70;;;;;;6280760;22;20026;-67
2023/12/15 15:07:40;;;;;;;0.95;0.70;;;14.30;96.70;;;;;;6308051;22;20104;-67
2023/12/15 15:10:08;;;;;;;0.52;0.35;;;14.20;96.70;;;;;;6307590;22;20657;-67
2023/12/15 15:12:37;;;;;;;0.73;0.40;;;14.20;96.70;;;;;;6254743;22;20031;-68
2023/12/15 15:15:08;;;;;;;1.52;0.70;;;14.20;96.70;;;;;;6280260;22;20039;-67
2023/12/15 15:17:37;;;;;;;1.48;0.47;;;14.10;96.70;;;;;;6306966;22;20019;-67
2023/12/15 15:20:07;;;;;;;0.88;0.45;;;14.00;96.70;;;;;;6279790;22;20027;-67
2023/12/15 15:22:35;;;;;;;1.25;0.43;;;14.00;96.70;;;;;;6274526;22;20101;-67
2023/12/15 15:25:06;;;;;;;1.08;0.50;;;13.90;96.70;;;;;;6225049;22;20107;-68
2023/12/15 15:27:37;;;;;;;0.50;0.40;;;13.90;96.70;;;;;;6274485;22;20027;-67
2023/12/15 15:30:09;;;;;;;0.68;0.38;;;13.80;96.70;;;;;;6274965;22;20019;-68
2023/12/15 15:32:39;;;;;;;0.60;0.30;;;13.80;96.70;;;;;;6275009;22;20081;-67
2023/12/15 15:35:10;;;;;;;1.08;0.65;;;13.70;96.70;;;;;;6239124;22;20027;-68
2023/12/15 15:37:39;;;;;;;1.63;0.68;;;13.70;96.70;;;;;;6275626;22;20077;-67
2023/12/15 15:40:11;;;;;;;1.75;1.20;;;13.60;96.70;;;;;;6275711;22;20011;-67
2023/12/15 15:42:39;;;;;;;3.35;2.00;;;13.50;96.70;;;;;;6269297;22;20067;-68
2023/12/15 15:45:11;;;;;;;2.60;1.60;;;13.40;96.70;;;;;;6238210;22;20327;-67
2023/12/15 15:47:40;;;;;;;2.22;1.35;;;13.40;96.70;;;;;;6274724;22;20077;-67
2023/12/15 15:50:09;;;;;;;1.77;1.00;;;13.30;96.70;;;;;;6276282;22;20022;-67
2023/12/15 15:52:40;;;;;;;1.75;1.00;;;13.20;96.70;;;;;;6269885;22;20023;-67
2023/12/15 15:55:09;;;;;;;2.78;0.90;;;13.20;96.70;;;;;;6238641;22;20024;-68
2023/12/15 15:57:38;;;;;;;2.40;0.80;;;13.10;96.70;;;;;;6225070;22;20336;-68
2023/12/15 16:00:11;;;;;;;1.13;0.57;;;13.10;96.70;;;;;;6275814;22;20023;-67
2023/12/15 16:02:40;;;;;;;1.08;0.70;;;13.10;96.70;;;;;;6245713;22;20027;-68
2023/12/15 16:05:09;;;;;;;1.42;0.80;;;13.00;96.70;;;;;;6275842;22;20019;-68